createdAt,value
2023-04-13T00:02:07.231Z,12.09
2023-04-13T00:14:06.979Z,12.08
2023-04-13T00:26:07.035Z,12.07
2023-04-13T00:38:06.989Z,12.06
2023-04-13T00:50:07.081Z,12.04
2023-04-13T01:02:07.157Z,12.04
2023-04-13T01:14:06.980Z,12.03
2023-04-13T01:26:07.078Z,12.01
2023-04-13T01:38:07.087Z,12.00
2023-04-13T01:50:07.104Z,11.99
2023-04-13T02:02:07.219Z,11.99
2023-04-13T02:14:06.984Z,11.97
2023-04-13T02:26:06.990Z,11.95
2023-04-13T02:38:07.043Z,11.95
2023-04-13T02:50:07.065Z,11.94
2023-04-13T03:02:07.115Z,11.93
2023-04-13T03:14:07.073Z,11.92
2023-04-13T03:26:07.022Z,11.90
2023-04-13T03:38:07.004Z,11.88
2023-04-13T03:50:07.018Z,11.88
2023-04-13T04:02:07.209Z,11.87
2023-04-13T04:14:07.042Z,11.86
2023-04-13T04:26:07.004Z,11.85
2023-04-13T04:38:07.091Z,11.84
2023-04-13T04:50:06.979Z,11.82
2023-04-13T05:02:07.459Z,11.82
2023-04-13T05:14:07.525Z,11.80
2023-04-13T05:26:06.987Z,11.81
2023-04-13T05:38:07.008Z,11.80
2023-04-13T05:50:07.045Z,11.79
2023-04-13T06:02:07.234Z,11.79
2023-04-13T06:14:07.009Z,11.79
2023-04-13T06:26:06.982Z,11.79
2023-04-13T06:38:07.049Z,11.79
2023-04-13T06:50:06.979Z,11.79
2023-04-13T07:02:07.078Z,11.79
2023-04-13T07:14:07.112Z,11.79
2023-04-13T07:26:07.039Z,11.80
2023-04-13T07:38:06.990Z,11.80
2023-04-13T07:50:07.094Z,11.82
2023-04-13T08:02:07.066Z,11.82
2023-04-13T08:14:07.074Z,11.87
2023-04-13T08:26:06.987Z,11.87
2023-04-13T08:38:06.988Z,12.19
2023-04-13T08:50:07.071Z,12.04
2023-04-13T09:02:07.146Z,11.99
2023-04-13T09:14:07.043Z,12.04
2023-04-13T09:26:07.012Z,12.09
2023-04-13T09:38:06.997Z,12.15
2023-04-13T09:50:07.076Z,12.22
2023-04-13T10:02:07.018Z,12.23
2023-04-13T10:14:07.005Z,12.31
2023-04-13T10:26:07.187Z,12.35
2023-04-13T10:38:06.985Z,12.33
2023-04-13T10:50:07.059Z,12.58
2023-04-13T11:02:07.261Z,12.58
2023-04-13T11:14:07.054Z,12.56
2023-04-13T11:26:07.107Z,12.56
2023-04-13T11:38:06.982Z,12.60
2023-04-13T11:50:07.120Z,12.60
2023-04-13T12:02:14.910Z,12.61
2023-04-13T12:14:13.837Z,12.60
2023-04-13T12:26:25.988Z,12.59
2023-04-13T12:38:06.983Z,12.60
2023-04-13T12:50:07.067Z,12.61
2023-04-13T13:02:07.129Z,12.60
2023-04-13T13:14:07.874Z,12.60
2023-04-13T13:26:23.275Z,12.59
2023-04-13T13:38:07.036Z,12.61
2023-04-13T13:50:07.122Z,12.60
2023-04-13T14:02:07.170Z,12.60
2023-04-13T14:14:18.324Z,12.60
2023-04-13T14:26:07.043Z,12.60
2023-04-13T14:38:07.009Z,12.60
2023-04-13T14:50:06.993Z,12.60
2023-04-13T15:02:07.231Z,12.60
2023-04-13T15:14:07.076Z,12.59
2023-04-13T15:26:07.103Z,12.61
2023-04-13T15:38:07.040Z,12.59
2023-04-13T15:50:07.049Z,12.60
2023-04-13T16:02:07.197Z,12.61
2023-04-13T16:14:07.374Z,12.60
2023-04-13T16:26:07.106Z,12.59
2023-04-13T16:38:06.994Z,12.60
2023-04-13T16:50:06.991Z,12.59
2023-04-13T17:02:08.506Z,12.59
2023-04-13T17:14:07.072Z,12.58
2023-04-13T17:26:07.050Z,12.56
2023-04-13T17:38:06.977Z,12.56
2023-04-13T17:50:07.122Z,12.55
2023-04-13T18:02:07.087Z,12.53
2023-04-13T18:14:07.048Z,12.51
2023-04-13T18:26:07.098Z,12.50
2023-04-13T18:38:07.118Z,12.48
2023-04-13T18:50:06.994Z,12.47
2023-04-13T19:02:07.190Z,12.46
2023-04-13T19:14:07.105Z,12.44
2023-04-13T19:26:06.988Z,12.43
2023-04-13T19:38:06.997Z,12.41
2023-04-13T19:50:07.033Z,12.40
2023-04-13T20:02:07.099Z,12.38
2023-04-13T20:14:07.132Z,12.37
2023-04-13T20:26:07.096Z,12.35
2023-04-13T20:38:07.014Z,12.33
2023-04-13T20:50:07.060Z,12.32
2023-04-13T21:02:07.059Z,12.31
2023-04-13T21:14:07.094Z,12.30
2023-04-13T21:26:07.053Z,12.29
2023-04-13T21:38:07.060Z,12.27
2023-04-13T21:50:07.003Z,12.26
2023-04-13T22:02:07.161Z,12.23
2023-04-13T22:14:06.988Z,12.23
2023-04-13T22:26:07.098Z,12.22
2023-04-13T22:38:07.266Z,12.21
2023-04-13T22:50:07.035Z,12.18
2023-04-13T23:02:07.163Z,12.19
2023-04-13T23:14:06.996Z,12.17
2023-04-13T23:26:07.046Z,12.15
2023-04-13T23:38:07.042Z,12.15
2023-04-13T23:50:06.977Z,12.14
